sensor_id;sensor_type;location;lat;lon;timestamp;pressure;altitude;pressure_sealevel;temperature;humidity
15260;BME280;34462;51.368;12.364;2023-03-01T00:01:45;18960.34;;;-141.84;63.95
15260;BME280;34462;51.368;12.364;2023-03-01T00:04:13;18956.28;;;-141.84;63.95
15260;BME280;34462;51.368;12.364;2023-03-01T00:06:43;18956.28;;;-141.84;63.81
15260;BME280;34462;51.368;12.364;2023-03-01T00:09:13;18948.16;;;-141.84;63.89
15260;BME280;34462;51.368;12.364;2023-03-01T00:11:41;18956.28;;;-141.84;63.90
15260;BME280;34462;51.368;12.364;2023-03-01T00:14:10;18956.28;;;-141.84;63.98
15260;BME280;34462;51.368;12.364;2023-03-01T00:16:41;18956.28;;;-141.84;64.18
15260;BME280;34462;51.368;12.364;2023-03-01T00:19:12;18940.03;;;-141.84;64.25
15260;BME280;34462;51.368;12.364;2023-03-01T00:21:42;18946.13;;;-141.84;64.60
15260;BME280;34462;51.368;12.364;2023-03-01T00:24:11;18940.03;;;-141.84;64.74
15260;BME280;34462;51.368;12.364;2023-03-01T00:26:39;18938.00;;;-141.84;64.15
15260;BME280;34462;51.368;12.364;2023-03-01T00:29:08;18948.16;;;-141.84;63.63
15260;BME280;34462;51.368;12.364;2023-03-01T00:31:36;18950.19;;;-141.84;63.82
15260;BME280;34462;51.368;12.364;2023-03-01T00:34:05;18954.25;;;-141.84;64.17
15260;BME280;34462;51.368;12.364;2023-03-01T00:36:36;18966.44;;;-141.84;64.04
15260;BME280;34462;51.368;12.364;2023-03-01T00:39:10;18968.47;;;-141.84;63.86
15260;BME280;34462;51.368;12.364;2023-03-01T00:41:39;18919.69;;;-141.84;64.29
15260;BME280;34462;51.368;12.364;2023-03-01T00:44:08;18927.84;;;-141.84;64.83
15260;BME280;34462;51.368;12.364;2023-03-01T00:46:36;18944.09;;;-141.84;65.11
15260;BME280;34462;51.368;12.364;2023-03-01T00:49:04;18923.78;;;-141.84;64.92
15260;BME280;34462;51.368;12.364;2023-03-01T00:51:33;18925.81;;;-141.84;64.04
15260;BME280;34462;51.368;12.364;2023-03-01T00:54:02;18946.13;;;-141.84;63.97
15260;BME280;34462;51.368;12.364;2023-03-01T00:56:32;18942.06;;;-141.84;64.53
15260;BME280;34462;51.368;12.364;2023-03-01T00:59:01;18938.00;;;-141.84;65.00
15260;BME280;34462;51.368;12.364;2023-03-01T01:01:30;18940.03;;;-141.84;64.32
15260;BME280;34462;51.368;12.364;2023-03-01T01:04:02;18960.34;;;-141.84;63.83
15260;BME280;34462;51.368;12.364;2023-03-01T01:06:33;18946.13;;;-141.84;64.06
15260;BME280;34462;51.368;12.364;2023-03-01T01:09:05;18933.94;;;-141.84;64.41
15260;BME280;34462;51.368;12.364;2023-03-01T01:11:35;18935.97;;;-141.84;64.59
15260;BME280;34462;51.368;12.364;2023-03-01T01:14:04;18895.31;;;-141.84;65.58
15260;BME280;34462;51.368;12.364;2023-03-01T01:16:32;18944.09;;;-141.84;65.04
15260;BME280;34462;51.368;12.364;2023-03-01T01:19:01;18925.81;;;-141.84;64.38
15260;BME280;34462;51.368;12.364;2023-03-01T01:21:30;18933.94;;;-141.84;65.12
15260;BME280;34462;51.368;12.364;2023-03-01T01:23:59;18923.78;;;-141.84;65.49
15260;BME280;34462;51.368;12.364;2023-03-01T01:26:29;18925.81;;;-141.84;64.60
15260;BME280;34462;51.368;12.364;2023-03-01T01:29:02;18952.22;;;-141.84;64.39
15260;BME280;34462;51.368;12.364;2023-03-01T01:31:32;18929.88;;;-141.84;64.41
15260;BME280;34462;51.368;12.364;2023-03-01T01:34:03;18917.66;;;-141.84;64.19
15260;BME280;34462;51.368;12.364;2023-03-01T01:36:32;18940.03;;;-141.84;64.41
15260;BME280;34462;51.368;12.364;2023-03-01T01:39:01;18921.75;;;-141.84;64.85
15260;BME280;34462;51.368;12.364;2023-03-01T01:41:30;18899.38;;;-141.84;64.88
15260;BME280;34462;51.368;12.364;2023-03-01T01:44:20;18927.84;;;-141.84;65.44
15260;BME280;34462;51.368;12.364;2023-03-01T01:46:54;18913.59;;;-141.84;66.45
15260;BME280;34462;51.368;12.364;2023-03-01T01:49:31;18919.69;;;-141.84;66.91
15260;BME280;34462;51.368;12.364;2023-03-01T01:52:09;18877.03;;;-141.84;67.35
15260;BME280;34462;51.368;12.364;2023-03-01T01:54:44;18887.19;;;-141.84;67.46
15260;BME280;34462;51.368;12.364;2023-03-01T01:57:22;18921.75;;;-141.84;66.57
15260;BME280;34462;51.368;12.364;2023-03-01T01:59:56;18889.22;;;-141.84;66.46
15260;BME280;34462;51.368;12.364;2023-03-01T02:02:27;18915.63;;;-141.84;66.58
15260;BME280;34462;51.368;12.364;2023-03-01T02:05:02;18935.97;;;-141.84;65.97
15260;BME280;34462;51.368;12.364;2023-03-01T02:07:38;18915.63;;;-141.84;65.22
15260;BME280;34462;51.368;12.364;2023-03-01T02:10:09;18942.06;;;-141.84;65.04
15260;BME280;34462;51.368;12.364;2023-03-01T02:12:39;18931.91;;;-141.84;65.32
15260;BME280;34462;51.368;12.364;2023-03-01T02:15:10;18923.78;;;-141.84;65.32
15260;BME280;34462;51.368;12.364;2023-03-01T02:17:38;18891.25;;;-141.84;65.60
15260;BME280;34462;51.368;12.364;2023-03-01T02:20:18;18927.84;;;-141.84;66.11
15260;BME280;34462;51.368;12.364;2023-03-01T02:22:50;18917.66;;;-141.84;66.83
15260;BME280;34462;51.368;12.364;2023-03-01T02:25:30;18903.44;;;-141.84;67.06
15260;BME280;34462;51.368;12.364;2023-03-01T02:30:40;18883.13;;;-141.84;66.96
15260;BME280;34462;51.368;12.364;2023-03-01T02:33:33;18909.53;;;-141.84;67.08
15260;BME280;34462;51.368;12.364;2023-03-01T02:36:07;18893.28;;;-141.84;68.03
15260;BME280;34462;51.368;12.364;2023-03-01T02:38:36;18887.19;;;-141.84;68.57
15260;BME280;34462;51.368;12.364;2023-03-01T02:41:05;18870.94;;;-141.84;68.75
15260;BME280;34462;51.368;12.364;2023-03-01T02:43:35;18856.72;;;-141.84;69.18
15260;BME280;34462;51.368;12.364;2023-03-01T02:46:08;18883.13;;;-141.84;69.20
15260;BME280;34462;51.368;12.364;2023-03-01T02:48:42;18879.06;;;-141.84;69.41
15260;BME280;34462;51.368;12.364;2023-03-01T02:51:37;18891.25;;;-141.84;69.64
15260;BME280;34462;51.368;12.364;2023-03-01T02:54:18;18854.69;;;-141.84;69.36
15260;BME280;34462;51.368;12.364;2023-03-01T02:56:50;18870.94;;;-141.84;69.78
15260;BME280;34462;51.368;12.364;2023-03-01T02:59:23;18870.94;;;-141.84;69.99
15260;BME280;34462;51.368;12.364;2023-03-01T03:01:53;18860.78;;;-141.84;70.03
15260;BME280;34462;51.368;12.364;2023-03-01T03:04:22;18879.06;;;-141.84;70.05
15260;BME280;34462;51.368;12.364;2023-03-01T03:06:51;18828.28;;;-141.84;70.21
15260;BME280;34462;51.368;12.364;2023-03-01T03:09:19;18891.25;;;-141.84;69.97
15260;BME280;34462;51.368;12.364;2023-03-01T03:11:48;18872.97;;;-141.84;68.66
15260;BME280;34462;51.368;12.364;2023-03-01T03:14:17;18883.13;;;-141.84;68.15
15260;BME280;34462;51.368;12.364;2023-03-01T03:16:48;18893.28;;;-141.84;68.01
15260;BME280;34462;51.368;12.364;2023-03-01T03:19:19;18870.94;;;-141.84;68.22
15260;BME280;34462;51.368;12.364;2023-03-01T03:21:47;18905.47;;;-141.84;68.69
15260;BME280;34462;51.368;12.364;2023-03-01T03:24:16;18862.81;;;-141.84;68.87
15260;BME280;34462;51.368;12.364;2023-03-01T03:26:45;18887.19;;;-141.84;69.37
15260;BME280;34462;51.368;12.364;2023-03-01T03:29:13;18868.91;;;-141.84;69.65
15260;BME280;34462;51.368;12.364;2023-03-01T03:31:41;18866.88;;;-141.84;69.34
15260;BME280;34462;51.368;12.364;2023-03-01T03:34:09;18864.84;;;-141.84;69.14
15260;BME280;34462;51.368;12.364;2023-03-01T03:36:46;18889.22;;;-141.84;68.31
15260;BME280;34462;51.368;12.364;2023-03-01T03:39:14;18899.38;;;-141.84;68.10
15260;BME280;34462;51.368;12.364;2023-03-01T03:41:42;18891.25;;;-141.84;67.87
15260;BME280;34462;51.368;12.364;2023-03-01T03:44:10;18870.94;;;-141.84;67.96
15260;BME280;34462;51.368;12.364;2023-03-01T03:46:38;18897.34;;;-141.84;67.84
15260;BME280;34462;51.368;12.364;2023-03-01T03:49:06;18909.53;;;-141.84;67.72
15260;BME280;34462;51.368;12.364;2023-03-01T03:51:35;18887.19;;;-141.84;67.62
15260;BME280;34462;51.368;12.364;2023-03-01T03:54:04;18866.88;;;-141.84;67.59
15260;BME280;34462;51.368;12.364;2023-03-01T03:56:33;18872.97;;;-141.84;67.22
15260;BME280;34462;51.368;12.364;2023-03-01T03:59:01;18903.44;;;-141.84;67.00
15260;BME280;34462;51.368;12.364;2023-03-01T04:01:30;18885.16;;;-141.84;67.44
15260;BME280;34462;51.368;12.364;2023-03-01T04:03:58;18903.44;;;-141.84;67.21
15260;BME280;34462;51.368;12.364;2023-03-01T04:06:31;18858.75;;;-141.84;67.95
15260;BME280;34462;51.368;12.364;2023-03-01T04:08:59;18887.19;;;-141.84;68.45
15260;BME280;34462;51.368;12.364;2023-03-01T04:11:31;18885.16;;;-141.84;67.85
15260;BME280;34462;51.368;12.364;2023-03-01T04:14:01;18927.84;;;-141.84;68.36
15260;BME280;34462;51.368;12.364;2023-03-01T04:16:31;18862.81;;;-141.84;68.39
15260;BME280;34462;51.368;12.364;2023-03-01T04:19:00;18895.31;;;-141.84;68.49
15260;BME280;34462;51.368;12.364;2023-03-01T04:21:28;18903.44;;;-141.84;68.52
15260;BME280;34462;51.368;12.364;2023-03-01T04:23:56;18891.25;;;-141.84;68.38
15260;BME280;34462;51.368;12.364;2023-03-01T04:26:24;18899.38;;;-141.84;68.62
15260;BME280;34462;51.368;12.364;2023-03-01T04:28:55;18903.44;;;-141.84;68.98
15260;BME280;34462;51.368;12.364;2023-03-01T04:31:23;18862.81;;;-141.84;69.00
15260;BME280;34462;51.368;12.364;2023-03-01T04:33:53;18877.03;;;-141.84;69.41
15260;BME280;34462;51.368;12.364;2023-03-01T04:36:24;18862.81;;;-141.84;70.15
15260;BME280;34462;51.368;12.364;2023-03-01T04:38:54;18866.88;;;-141.84;70.37
15260;BME280;34462;51.368;12.364;2023-03-01T04:41:24;18909.53;;;-141.84;69.96
15260;BME280;34462;51.368;12.364;2023-03-01T04:43:55;18901.41;;;-141.84;69.70
15260;BME280;34462;51.368;12.364;2023-03-01T04:46:23;18891.25;;;-141.84;69.00
15260;BME280;34462;51.368;12.364;2023-03-01T04:48:52;18866.88;;;-141.84;68.52
15260;BME280;34462;51.368;12.364;2023-03-01T04:51:20;18889.22;;;-141.84;68.41
15260;BME280;34462;51.368;12.364;2023-03-01T04:53:48;18881.09;;;-141.84;68.53
15260;BME280;34462;51.368;12.364;2023-03-01T04:56:17;18875.00;;;-141.84;69.48
15260;BME280;34462;51.368;12.364;2023-03-01T04:58:46;18881.09;;;-141.84;69.83
15260;BME280;34462;51.368;12.364;2023-03-01T05:01:19;18866.88;;;-141.84;70.11
15260;BME280;34462;51.368;12.364;2023-03-01T05:03:50;18868.91;;;-141.84;69.62
15260;BME280;34462;51.368;12.364;2023-03-01T05:06:20;18893.28;;;-141.84;69.70
15260;BME280;34462;51.368;12.364;2023-03-01T05:08:49;18887.19;;;-141.84;70.11
15260;BME280;34462;51.368;12.364;2023-03-01T05:11:17;18856.72;;;-141.84;70.11
15260;BME280;34462;51.368;12.364;2023-03-01T05:13:45;18875.00;;;-141.84;69.99
15260;BME280;34462;51.368;12.364;2023-03-01T05:16:13;18850.63;;;-141.84;70.39
15260;BME280;34462;51.368;12.364;2023-03-01T05:18:45;18860.78;;;-141.84;70.88
15260;BME280;34462;51.368;12.364;2023-03-01T05:21:14;18883.13;;;-141.84;70.89
15260;BME280;34462;51.368;12.364;2023-03-01T05:23:44;18872.97;;;-141.84;70.78
15260;BME280;34462;51.368;12.364;2023-03-01T05:26:14;18838.44;;;-141.84;70.46
15260;BME280;34462;51.368;12.364;2023-03-01T05:28:59;18858.75;;;-141.84;71.45
15260;BME280;34462;51.368;12.364;2023-03-01T05:31:27;18834.38;;;-141.84;72.52
15260;BME280;34462;51.368;12.364;2023-03-01T05:33:59;18842.50;;;-141.84;73.43
15260;BME280;34462;51.368;12.364;2023-03-01T05:36:28;18822.19;;;-141.84;73.35
15260;BME280;34462;51.368;12.364;2023-03-01T05:38:57;18844.53;;;-141.84;73.92
15260;BME280;34462;51.368;12.364;2023-03-01T05:41:25;18803.88;;;-141.84;73.80
15260;BME280;34462;51.368;12.364;2023-03-01T05:43:53;18830.31;;;-141.84;73.34
15260;BME280;34462;51.368;12.364;2023-03-01T05:46:21;18828.28;;;-141.84;73.68
15260;BME280;34462;51.368;12.364;2023-03-01T05:48:51;18844.53;;;-141.84;73.73
15260;BME280;34462;51.368;12.364;2023-03-01T05:51:21;18834.38;;;-141.84;73.89
15260;BME280;34462;51.368;12.364;2023-03-01T05:53:49;18842.50;;;-141.84;74.06
15260;BME280;34462;51.368;12.364;2023-03-01T05:56:17;18834.38;;;-141.84;74.13
15260;BME280;34462;51.368;12.364;2023-03-01T05:58:47;18818.09;;;-141.84;74.24
15260;BME280;34462;51.368;12.364;2023-03-01T06:01:16;18818.09;;;-141.84;74.59
15260;BME280;34462;51.368;12.364;2023-03-01T06:03:44;18805.91;;;-141.84;74.46
15260;BME280;34462;51.368;12.364;2023-03-01T06:06:12;18814.03;;;-141.84;74.47
15260;BME280;34462;51.368;12.364;2023-03-01T06:08:42;18816.06;;;-141.84;73.95
15260;BME280;34462;51.368;12.364;2023-03-01T06:11:10;18826.25;;;-141.84;73.78
15260;BME280;34462;51.368;12.364;2023-03-01T06:13:38;18834.38;;;-141.84;73.41
15260;BME280;34462;51.368;12.364;2023-03-01T06:16:07;18850.63;;;-141.84;73.33
15260;BME280;34462;51.368;12.364;2023-03-01T06:18:37;18828.28;;;-141.84;73.64
15260;BME280;34462;51.368;12.364;2023-03-01T06:21:07;18832.34;;;-141.84;73.34
15260;BME280;34462;51.368;12.364;2023-03-01T06:23:36;18830.31;;;-141.84;73.27
15260;BME280;34462;51.368;12.364;2023-03-01T06:26:08;18820.16;;;-141.84;73.33
15260;BME280;34462;51.368;12.364;2023-03-01T06:28:37;18846.56;;;-141.84;72.96
15260;BME280;34462;51.368;12.364;2023-03-01T06:31:05;18822.19;;;-141.84;73.37
15260;BME280;34462;51.368;12.364;2023-03-01T06:33:35;18822.19;;;-141.84;72.99
15260;BME280;34462;51.368;12.364;2023-03-01T06:36:04;18828.28;;;-141.84;73.22
15260;BME280;34462;51.368;12.364;2023-03-01T06:38:33;18844.53;;;-141.84;72.78
15260;BME280;34462;51.368;12.364;2023-03-01T06:41:01;18840.47;;;-141.84;72.17
15260;BME280;34462;51.368;12.364;2023-03-01T06:43:31;18875.00;;;-141.84;71.41
15260;BME280;34462;51.368;12.364;2023-03-01T06:45:59;18842.50;;;-141.84;71.37
15260;BME280;34462;51.368;12.364;2023-03-01T06:48:27;18834.38;;;-141.84;71.78
15260;BME280;34462;51.368;12.364;2023-03-01T06:50:58;18838.44;;;-141.84;72.30
15260;BME280;34462;51.368;12.364;2023-03-01T06:53:26;18842.50;;;-141.84;71.89
15260;BME280;34462;51.368;12.364;2023-03-01T06:55:55;18856.72;;;-141.84;71.20
15260;BME280;34462;51.368;12.364;2023-03-01T06:58:23;18883.13;;;-141.84;71.28
15260;BME280;34462;51.368;12.364;2023-03-01T07:00:53;18879.06;;;-141.84;71.12
15260;BME280;34462;51.368;12.364;2023-03-01T07:03:21;18866.88;;;-141.84;70.84
15260;BME280;34462;51.368;12.364;2023-03-01T07:05:50;18862.81;;;-141.84;70.25
15260;BME280;34462;51.368;12.364;2023-03-01T07:08:19;18887.19;;;-141.84;69.84
15260;BME280;34462;51.368;12.364;2023-03-01T07:10:47;18881.09;;;-141.84;69.92
15260;BME280;34462;51.368;12.364;2023-03-01T07:13:18;18891.25;;;-141.84;69.80
15260;BME280;34462;51.368;12.364;2023-03-01T07:15:46;18891.25;;;-141.84;69.10
15260;BME280;34462;51.368;12.364;2023-03-01T07:18:16;18903.44;;;-141.84;68.39
15260;BME280;34462;51.368;12.364;2023-03-01T07:20:44;18909.53;;;-141.84;68.36
15260;BME280;34462;51.368;12.364;2023-03-01T07:23:12;18927.84;;;-141.84;68.05
15260;BME280;34462;51.368;12.364;2023-03-01T07:25:40;18919.69;;;-141.84;68.05
15260;BME280;34462;51.368;12.364;2023-03-01T07:28:08;18948.16;;;-141.84;67.20
15260;BME280;34462;51.368;12.364;2023-03-01T07:30:36;18899.38;;;-141.84;67.29
15260;BME280;34462;51.368;12.364;2023-03-01T07:33:05;18917.66;;;-141.84;66.61
15260;BME280;34462;51.368;12.364;2023-03-01T07:35:36;18925.81;;;-141.84;66.45
15260;BME280;34462;51.368;12.364;2023-03-01T07:38:04;18925.81;;;-141.84;65.96
15260;BME280;34462;51.368;12.364;2023-03-01T07:40:32;18931.91;;;-141.84;65.68
15260;BME280;34462;51.368;12.364;2023-03-01T07:43:00;18921.75;;;-141.84;65.17
15260;BME280;34462;51.368;12.364;2023-03-01T07:45:29;18933.94;;;-141.84;64.97
15260;BME280;34462;51.368;12.364;2023-03-01T07:47:57;18968.47;;;-141.84;64.90
15260;BME280;34462;51.368;12.364;2023-03-01T07:50:25;18974.56;;;-141.84;63.94
15260;BME280;34462;51.368;12.364;2023-03-01T07:52:55;18988.78;;;-141.84;62.66
15260;BME280;34462;51.368;12.364;2023-03-01T07:55:23;18964.41;;;-141.84;63.08
15260;BME280;34462;51.368;12.364;2023-03-01T07:57:51;19000.97;;;-141.84;61.90
15260;BME280;34462;51.368;12.364;2023-03-01T08:00:20;19009.09;;;-141.84;61.58
15260;BME280;34462;51.368;12.364;2023-03-01T08:02:48;19047.72;;;-141.84;61.57
15260;BME280;34462;51.368;12.364;2023-03-01T08:05:17;19023.34;;;-141.84;60.93
15260;BME280;34462;51.368;12.364;2023-03-01T08:07:45;19035.53;;;-141.84;60.23
15260;BME280;34462;51.368;12.364;2023-03-01T08:10:15;19017.25;;;-141.84;60.56
15260;BME280;34462;51.368;12.364;2023-03-01T08:12:43;19033.50;;;-141.84;60.42
15260;BME280;34462;51.368;12.364;2023-03-01T08:15:11;19021.31;;;-141.84;59.67
15260;BME280;34462;51.368;12.364;2023-03-01T08:17:39;19037.56;;;-141.84;59.97
15260;BME280;34462;51.368;12.364;2023-03-01T08:20:09;19045.69;;;-141.84;59.71
15260;BME280;34462;51.368;12.364;2023-03-01T08:22:39;19033.50;;;-141.84;59.31
15260;BME280;34462;51.368;12.364;2023-03-01T08:25:08;19088.34;;;-141.84;58.24
15260;BME280;34462;51.368;12.364;2023-03-01T08:27:37;19096.47;;;-141.84;57.94
15260;BME280;34462;51.368;12.364;2023-03-01T08:30:08;19092.41;;;-141.84;57.55
15260;BME280;34462;51.368;12.364;2023-03-01T08:32:37;19110.72;;;-141.84;57.85
15260;BME280;34462;51.368;12.364;2023-03-01T08:35:07;19100.53;;;-141.84;57.13
15260;BME280;34462;51.368;12.364;2023-03-01T08:37:35;19096.47;;;-141.84;56.71
15260;BME280;34462;51.368;12.364;2023-03-01T08:40:05;19110.72;;;-141.84;57.13
15260;BME280;34462;51.368;12.364;2023-03-01T08:42:38;19114.78;;;-141.84;56.84
15260;BME280;34462;51.368;12.364;2023-03-01T08:45:08;19133.06;;;-141.84;57.05
15260;BME280;34462;51.368;12.364;2023-03-01T08:47:36;19133.06;;;-141.84;56.59
15260;BME280;34462;51.368;12.364;2023-03-01T08:50:06;19159.47;;;-141.84;56.67
15260;BME280;34462;51.368;12.364;2023-03-01T08:52:34;19151.34;;;-141.84;55.47
15260;BME280;34462;51.368;12.364;2023-03-01T08:55:03;19147.28;;;-141.84;55.19
15260;BME280;34462;51.368;12.364;2023-03-01T08:57:31;19153.38;;;-141.84;55.08
15260;BME280;34462;51.368;12.364;2023-03-01T09:00:00;19157.44;;;-141.84;55.47
15260;BME280;34462;51.368;12.364;2023-03-01T09:02:30;19163.53;;;-141.84;55.31
15260;BME280;34462;51.368;12.364;2023-03-01T09:04:58;19181.81;;;-141.84;55.24
15260;BME280;34462;51.368;12.364;2023-03-01T09:07:26;19171.66;;;-141.84;55.89
15260;BME280;34462;51.368;12.364;2023-03-01T09:09:55;19169.63;;;-141.84;55.08
15260;BME280;34462;51.368;12.364;2023-03-01T09:12:24;19187.91;;;-141.84;54.95
15260;BME280;34462;51.368;12.364;2023-03-01T09:14:52;19175.72;;;-141.84;54.83
15260;BME280;34462;51.368;12.364;2023-03-01T09:17:22;19189.97;;;-141.84;54.13
15260;BME280;34462;51.368;12.364;2023-03-01T09:19:50;19202.16;;;-141.84;53.51
15260;BME280;34462;51.368;12.364;2023-03-01T09:22:18;19192.00;;;-141.84;53.61
15260;BME280;34462;51.368;12.364;2023-03-01T09:24:46;19177.75;;;-141.84;53.75
15260;BME280;34462;51.368;12.364;2023-03-01T09:27:14;19189.97;;;-141.84;53.65
15260;BME280;34462;51.368;12.364;2023-03-01T09:29:45;19206.22;;;-141.84;53.60
15260;BME280;34462;51.368;12.364;2023-03-01T09:32:13;19187.91;;;-141.84;53.60
15260;BME280;34462;51.368;12.364;2023-03-01T09:34:43;19228.56;;;-141.84;53.44
15260;BME280;34462;51.368;12.364;2023-03-01T09:37:32;19206.22;;;-141.84;53.37
15260;BME280;34462;51.368;12.364;2023-03-01T09:40:02;19198.09;;;-141.84;53.48
15260;BME280;34462;51.368;12.364;2023-03-01T09:42:34;19218.41;;;-141.84;53.29
15260;BME280;34462;51.368;12.364;2023-03-01T09:45:06;19214.34;;;-141.84;52.69
15260;BME280;34462;51.368;12.364;2023-03-01T09:47:40;19224.50;;;-141.84;52.98
15260;BME280;34462;51.368;12.364;2023-03-01T09:50:15;19232.63;;;-141.84;52.78
15260;BME280;34462;51.368;12.364;2023-03-01T09:52:50;19228.56;;;-141.84;52.77
15260;BME280;34462;51.368;12.364;2023-03-01T09:55:31;19210.28;;;-141.84;52.74
15260;BME280;34462;51.368;12.364;2023-03-01T09:58:11;19224.50;;;-141.84;51.92
15260;BME280;34462;51.368;12.364;2023-03-01T10:00:47;19222.47;;;-141.84;52.02
15260;BME280;34462;51.368;12.364;2023-03-01T10:03:23;19216.38;;;-141.84;52.33
15260;BME280;34462;51.368;12.364;2023-03-01T10:06:00;19246.84;;;-141.84;51.99
15260;BME280;34462;51.368;12.364;2023-03-01T10:08:38;19206.22;;;-141.84;52.11
15260;BME280;34462;51.368;12.364;2023-03-01T10:11:21;19261.06;;;-141.84;51.96
15260;BME280;34462;51.368;12.364;2023-03-01T10:13:59;19254.97;;;-141.84;51.66
15260;BME280;34462;51.368;12.364;2023-03-01T10:16:40;19238.72;;;-141.84;51.74
15260;BME280;34462;51.368;12.364;2023-03-01T10:19:16;19236.69;;;-141.84;52.14
15260;BME280;34462;51.368;12.364;2023-03-01T10:21:50;19238.72;;;-141.84;51.66
15260;BME280;34462;51.368;12.364;2023-03-01T10:24:19;19301.72;;;-141.84;51.38
15260;BME280;34462;51.368;12.364;2023-03-01T10:26:55;19295.63;;;-141.84;51.61
15260;BME280;34462;51.368;12.364;2023-03-01T10:29:30;19277.34;;;-141.84;51.57
15260;BME280;34462;51.368;12.364;2023-03-01T10:32:04;19259.03;;;-141.84;51.06
15260;BME280;34462;51.368;12.364;2023-03-01T10:34:35;19297.66;;;-141.84;51.04
15260;BME280;34462;51.368;12.364;2023-03-01T10:37:12;19257.00;;;-141.84;51.71
15260;BME280;34462;51.368;12.364;2023-03-01T10:39:57;19295.63;;;-141.84;51.35
15260;BME280;34462;51.368;12.364;2023-03-01T10:42:29;19283.44;;;-141.84;50.76
15260;BME280;34462;51.368;12.364;2023-03-01T10:45:15;19330.16;;;-141.84;50.12
15260;BME280;34462;51.368;12.364;2023-03-01T10:47:44;19285.47;;;-141.84;50.65
15260;BME280;34462;51.368;12.364;2023-03-01T10:50:20;19299.69;;;-141.84;50.57
15260;BME280;34462;51.368;12.364;2023-03-01T10:52:59;19317.97;;;-141.84;50.59
15260;BME280;34462;51.368;12.364;2023-03-01T10:55:35;19311.88;;;-141.84;50.91
15260;BME280;34462;51.368;12.364;2023-03-01T10:58:16;19324.06;;;-141.84;49.91
15260;BME280;34462;51.368;12.364;2023-03-01T11:00:49;19303.75;;;-141.84;50.67
15260;BME280;34462;51.368;12.364;2023-03-01T11:03:22;19301.72;;;-141.84;50.98
15260;BME280;34462;51.368;12.364;2023-03-01T11:06:02;19297.66;;;-141.84;50.61
15260;BME280;34462;51.368;12.364;2023-03-01T11:08:41;19281.41;;;-141.84;50.18
15260;BME280;34462;51.368;12.364;2023-03-01T11:11:23;19279.38;;;-141.84;50.81
15260;BME280;34462;51.368;12.364;2023-03-01T11:13:57;19313.91;;;-141.84;50.21
15260;BME280;34462;51.368;12.364;2023-03-01T11:16:31;19338.28;;;-141.84;49.67
15260;BME280;34462;51.368;12.364;2023-03-01T11:19:15;19320.00;;;-141.84;50.02
15260;BME280;34462;51.368;12.364;2023-03-01T11:21:59;19301.72;;;-141.84;50.28
15260;BME280;34462;51.368;12.364;2023-03-01T11:24:39;19291.56;;;-141.84;49.38
15260;BME280;34462;51.368;12.364;2023-03-01T11:27:19;19313.91;;;-141.84;49.62
15260;BME280;34462;51.368;12.364;2023-03-01T11:29:55;19322.03;;;-141.84;50.33
15260;BME280;34462;51.368;12.364;2023-03-01T11:32:29;19309.84;;;-141.84;49.78
15260;BME280;34462;51.368;12.364;2023-03-01T11:35:07;19289.53;;;-141.84;49.29
15260;BME280;34462;51.368;12.364;2023-03-01T11:37:44;19311.88;;;-141.84;49.42
15260;BME280;34462;51.368;12.364;2023-03-01T11:40:25;19344.41;;;-141.84;49.00
15260;BME280;34462;51.368;12.364;2023-03-01T11:43:05;19309.84;;;-141.84;48.62
15260;BME280;34462;51.368;12.364;2023-03-01T11:45:54;19366.75;;;-141.84;48.67
15260;BME280;34462;51.368;12.364;2023-03-01T11:48:46;19344.41;;;-141.84;48.98
15260;BME280;34462;51.368;12.364;2023-03-01T11:51:26;19362.69;;;-141.84;48.98
15260;BME280;34462;51.368;12.364;2023-03-01T11:54:13;19362.69;;;-141.84;48.64
15260;BME280;34462;51.368;12.364;2023-03-01T11:56:49;19372.84;;;-141.84;48.04
15260;BME280;34462;51.368;12.364;2023-03-01T11:59:56;19362.69;;;-141.84;47.97
15260;BME280;34462;51.368;12.364;2023-03-01T12:03:00;19368.78;;;-141.84;48.53
15260;BME280;34462;51.368;12.364;2023-03-01T12:06:16;19291.56;;;-141.84;49.17
15260;BME280;34462;51.368;12.364;2023-03-01T12:09:05;19338.28;;;-141.84;49.24
15260;BME280;34462;51.368;12.364;2023-03-01T12:11:56;19383.00;;;-141.84;47.41
15260;BME280;34462;51.368;12.364;2023-03-01T12:15:08;19427.72;;;-141.84;46.27
15260;BME280;34462;51.368;12.364;2023-03-01T12:18:16;19425.69;;;-141.84;46.26
15260;BME280;34462;51.368;12.364;2023-03-01T12:21:02;19362.69;;;-141.84;45.91
15260;BME280;34462;51.368;12.364;2023-03-01T12:24:26;19399.25;;;-141.84;46.46
15260;BME280;34462;51.368;12.364;2023-03-01T12:27:16;19417.56;;;-141.84;45.93
15260;BME280;34462;51.368;12.364;2023-03-01T12:29:58;19378.94;;;-141.84;45.67
15260;BME280;34462;51.368;12.364;2023-03-01T12:32:44;19397.22;;;-141.84;46.21
15260;BME280;34462;51.368;12.364;2023-03-01T12:35:37;19370.81;;;-141.84;46.47
15260;BME280;34462;51.368;12.364;2023-03-01T12:38:41;19393.16;;;-141.84;46.65
15260;BME280;34462;51.368;12.364;2023-03-01T12:41:40;19362.69;;;-141.84;47.27
15260;BME280;34462;51.368;12.364;2023-03-01T12:44:44;19425.69;;;-141.84;47.16
15260;BME280;34462;51.368;12.364;2023-03-01T12:47:35;19472.41;;;-141.84;46.46
15260;BME280;34462;51.368;12.364;2023-03-01T12:50:17;19521.19;;;-141.84;45.19
15260;BME280;34462;51.368;12.364;2023-03-01T12:52:51;19565.91;;;-141.84;44.76
15260;BME280;34462;51.368;12.364;2023-03-01T12:55:29;19555.75;;;-141.84;44.64
15260;BME280;34462;51.368;12.364;2023-03-01T12:58:13;19561.84;;;-141.84;44.52
15260;BME280;34462;51.368;12.364;2023-03-01T13:01:13;19539.47;;;-141.84;45.07
15260;BME280;34462;51.368;12.364;2023-03-01T13:06:55;19523.22;;;-141.84;45.46